To NAV CANADA Home Page Login to a new session Search on AWWS site Feedback and Comments Disclaimer Vers la page française équivalente Tips FAQ What's new on the site To the Forecasts and Observations / NOTAM section To "File a Flight Plan" website Publications and other links Update of the User's profile FIC Telephone Numbers My Weather Data Folder Route Weather Data Regional Weather Data Local Weather Data To the Forecasts and Observations / NOTAM section
Request Generated 07/24/2016 at 01:00:19 UTC . Weather information available at that time is displayed.

METAR/TAF

LA RONGE (BARBER FIELD)/SK    

METAR CYVC 240000Z 06008KT 15SM BKN050CB 21/14 A2973 RMK CB6 SLP073
DENSITY ALT 2400FT=
METAR CYVC 232300Z 05011G18KT 15SM BKN050CB 20/16 A2972 RMK CB6
SLP070 DENSITY ALT 2300FT=
METAR CYVC 232200Z 01011KT 15SM SCT030CB BKN250 22/16 A2970 RMK
CB4CI2 SLP063 DENSITY ALT 2500FT=

TAF CYVC 240038Z 2401/2413 34010KT P6SM SCT030 BKN060 TEMPO 2401/2408
P6SM -SHRA PROB30 2401/2405 VRB15G25KT 3SM TSRA BKN020CB
FM240800 VRB03KT P6SM SCT050 BKN100
RMK NXT FCST BY 240700Z=
Your time UTC time
Weather data provided by Environment Canada and NAV CANADA